Godeffroy, New York
Current Conditions -  °F | °C
As of 12:53 AM on Monday 22 Dec 2014 (Local Time) from KFWN Reporting Station
Overcast Overcast  
Wind Chill: 25°   Ceiling: 2900
Heat Index: 31°   Visibility: 10mi
Dew Point: 26°   Wind: 6mph
Humidity: 82%   Direction: 30°NNE
Pressure: 30.31"   Gusts: NA
Location:  41.45°N, 74.61°W
Report Text: KFWN 220553Z AUTO 03005KT 10SM OVC029 M01/M03 A3031 RMK AO2 SNB28E37 SLP270 P0000 60000 T10061033 10006 21006 58003
Loading
Personal Weather Stations






























Interactive Weather Map New forecast layout! Learn more

10-Day Weather Forecast

Advertisements
Track Severe Weather on mobile